Time;durP1;ratioP1;P1;durP2;ratioP2;P2;SDS_P1;SDS_P2;PMS_P1;PMS_P2;Temp;Humidity;BMP_temperature;BMP_pressure;BME280_temperature;BME280_humidity;BME280_pressure;Samples;Min_cycle;Max_cycle;Signal;HPM_P1;HPM_P2
2021/10/14 00:01:13;;;;;;;1.65;1.55;;;;;;;;;;2068642;28;20038;-68
2021/10/14 00:02:32;;;;;;;1.83;1.60;;;;;;;;;;2070457;28;20033;-69
2021/10/14 00:03:51;;;;;;;1.40;1.30;;;;;;;;;;2078348;28;20033;-69
2021/10/14 00:05:10;;;;;;;2.58;1.35;;;;;;;;;;2071105;28;20026;-67
2021/10/14 00:06:29;;;;;;;1.48;1.20;;;;;;;;;;2071235;28;20117;-69
2021/10/14 00:07:48;;;;;;;1.63;1.10;;;;;;;;;;2071299;28;20034;-69
2021/10/14 00:09:07;;;;;;;1.63;1.40;;;;;;;;;;2066268;28;20517;-70
2021/10/14 00:10:26;;;;;;;1.30;1.10;;;;;;;;;;2075112;28;20481;-68
2021/10/14 00:11:45;;;;;;;2.22;0.68;;;;;;;;;;2075047;28;20030;-68
2021/10/14 00:13:04;;;;;;;0.80;0.80;;;;;;;;;;2072108;28;20022;-68
2021/10/14 00:14:23;;;;;;;1.10;0.68;;;;;;;;;;2068712;28;20033;-68
2021/10/14 00:15:42;;;;;;;1.35;0.65;;;;;;;;;;2069338;28;20030;-71
2021/10/14 00:17:00;;;;;;;1.67;0.80;;;;;;;;;;2068891;28;20022;-67
2021/10/14 00:18:19;;;;;;;1.98;0.65;;;;;;;;;;2069309;28;20025;-68
2021/10/14 00:19:40;;;;;;;1.17;0.80;;;;;;;;;;2070344;28;20470;-68
2021/10/14 00:20:58;;;;;;;1.65;0.70;;;;;;;;;;2073306;28;20026;-71
2021/10/14 00:22:17;;;;;;;0.93;0.85;;;;;;;;;;2072630;28;20589;-68
2021/10/14 00:23:36;;;;;;;1.00;0.80;;;;;;;;;;2076399;28;20091;-69
2021/10/14 00:24:55;;;;;;;1.30;0.93;;;;;;;;;;2074234;28;20030;-67
2021/10/14 00:26:14;;;;;;;0.80;0.80;;;;;;;;;;2073884;28;20493;-68
2021/10/14 00:27:33;;;;;;;0.88;0.88;;;;;;;;;;2069915;28;20042;-69
2021/10/14 00:28:52;;;;;;;0.95;0.82;;;;;;;;;;2079630;28;20649;-68
2021/10/14 00:30:10;;;;;;;0.88;0.80;;;;;;;;;;2074379;28;20026;-68
2021/10/14 00:31:29;;;;;;;1.00;0.90;;;;;;;;;;2072126;28;20029;-68
2021/10/14 00:32:48;;;;;;;0.80;0.80;;;;;;;;;;2073040;28;20018;-68
2021/10/14 00:34:07;;;;;;;4.22;0.90;;;;;;;;;;2081891;28;20088;-68
2021/10/14 00:35:26;;;;;;;2.40;1.20;;;;;;;;;;2077502;28;20038;-68
2021/10/14 00:36:45;;;;;;;1.00;0.88;;;;;;;;;;2072873;28;20026;-68
2021/10/14 00:38:04;;;;;;;1.42;1.33;;;;;;;;;;2072734;28;20022;-68
2021/10/14 00:39:23;;;;;;;2.53;1.20;;;;;;;;;;2070404;28;20031;-72
2021/10/14 00:40:42;;;;;;;1.73;1.25;;;;;;;;;;2072643;28;20029;-68
2021/10/14 00:42:01;;;;;;;2.50;1.25;;;;;;;;;;2073763;28;20417;-69
2021/10/14 00:43:20;;;;;;;1.50;0.77;;;;;;;;;;2071836;28;20085;-68
2021/10/14 00:44:43;;;;;;;0.80;0.73;;;;;;;;;;2070234;28;20478;-68
2021/10/14 00:46:02;;;;;;;1.10;0.93;;;;;;;;;;2072826;28;20045;-67
2021/10/14 00:47:23;;;;;;;1.00;0.90;;;;;;;;;;2073861;28;20046;-68
2021/10/14 00:48:42;;;;;;;1.55;0.98;;;;;;;;;;2072551;28;20113;-68
2021/10/14 00:50:01;;;;;;;2.08;0.98;;;;;;;;;;2079764;28;20065;-68
2021/10/14 00:51:19;;;;;;;0.80;0.80;;;;;;;;;;2076077;28;20026;-68
2021/10/14 00:52:40;;;;;;;1.33;1.15;;;;;;;;;;2071219;28;20030;-67
2021/10/14 00:53:58;;;;;;;0.80;0.80;;;;;;;;;;2072051;28;20026;-67
2021/10/14 00:55:17;;;;;;;2.60;1.10;;;;;;;;;;2068463;28;20030;-68
2021/10/14 00:56:36;;;;;;;1.15;1.00;;;;;;;;;;2072706;28;20441;-68
2021/10/14 00:57:55;;;;;;;1.10;1.00;;;;;;;;;;2071360;28;20410;-68
2021/10/14 00:59:14;;;;;;;1.25;0.85;;;;;;;;;;2071880;28;20038;-68
2021/10/14 01:00:33;;;;;;;0.88;0.80;;;;;;;;;;2071586;28;20386;-68
2021/10/14 01:01:52;;;;;;;0.73;0.70;;;;;;;;;;2070243;28;20486;-68
2021/10/14 01:03:11;;;;;;;1.63;0.77;;;;;;;;;;2073256;28;20474;-68
2021/10/14 01:04:30;;;;;;;0.68;0.68;;;;;;;;;;2071188;28;20045;-68
2021/10/14 01:05:50;;;;;;;1.08;0.65;;;;;;;;;;2077175;28;20041;-68
2021/10/14 01:07:09;;;;;;;0.80;0.65;;;;;;;;;;2073515;28;20486;-68
2021/10/14 01:08:28;;;;;;;0.95;0.63;;;;;;;;;;2071942;28;20046;-68
2021/10/14 01:09:47;;;;;;;1.63;0.63;;;;;;;;;;2071791;28;20038;-68
2021/10/14 01:11:06;;;;;;;0.98;0.70;;;;;;;;;;2072691;28;20113;-68
2021/10/14 01:12:25;;;;;;;2.05;0.80;;;;;;;;;;2073448;28;20034;-68
2021/10/14 01:13:44;;;;;;;0.73;0.70;;;;;;;;;;2071183;28;20030;-70
2021/10/14 01:15:18;;;;;;;0.95;0.85;;;;;;;;;;2070074;28;20073;-68
2021/10/14 01:16:38;;;;;;;0.65;0.65;;;;;;;;;;2071153;28;20022;-68
2021/10/14 01:17:57;;;;;;;1.23;0.85;;;;;;;;;;2071831;28;20104;-67
2021/10/14 01:19:16;;;;;;;1.98;0.90;;;;;;;;;;2070845;28;20113;-69
2021/10/14 01:20:35;;;;;;;2.70;0.52;;;;;;;;;;2070978;28;20034;-68
2021/10/14 01:21:54;;;;;;;0.82;0.40;;;;;;;;;;2072246;28;20026;-70
2021/10/14 01:23:12;;;;;;;0.50;0.50;;;;;;;;;;2073249;28;20045;-68
2021/10/14 01:24:31;;;;;;;0.60;0.60;;;;;;;;;;2072082;28;20108;-68
2021/10/14 01:25:50;;;;;;;1.75;1.00;;;;;;;;;;2072003;28;20033;-68
2021/10/14 01:27:09;;;;;;;1.00;0.70;;;;;;;;;;2070036;28;20042;-68
2021/10/14 01:28:28;;;;;;;1.45;1.08;;;;;;;;;;2079771;28;20030;-68
2021/10/14 01:29:47;;;;;;;0.60;0.60;;;;;;;;;;2074075;28;20441;-67
2021/10/14 01:31:06;;;;;;;3.05;0.98;;;;;;;;;;2079870;28;20413;-68
2021/10/14 01:32:25;;;;;;;1.20;0.80;;;;;;;;;;2075266;28;20486;-69
2021/10/14 01:33:44;;;;;;;1.23;0.88;;;;;;;;;;2080305;28;20025;-69
2021/10/14 01:35:04;;;;;;;1.33;0.88;;;;;;;;;;2075111;28;20030;-68
2021/10/14 01:36:23;;;;;;;0.65;0.60;;;;;;;;;;2072021;28;20042;-68
2021/10/14 01:37:42;;;;;;;0.90;0.70;;;;;;;;;;2071679;28;20042;-68
2021/10/14 01:39:03;;;;;;;0.95;0.90;;;;;;;;;;2073058;28;20018;-68
2021/10/14 01:40:22;;;;;;;1.15;0.95;;;;;;;;;;2072861;28;20504;-68
2021/10/14 01:41:43;;;;;;;1.17;0.65;;;;;;;;;;2068825;28;20038;-68
2021/10/14 01:43:02;;;;;;;1.08;0.60;;;;;;;;;;2072713;28;20030;-68
2021/10/14 01:44:21;;;;;;;1.35;1.00;;;;;;;;;;2072738;28;20045;-68
2021/10/14 01:45:40;;;;;;;0.98;0.70;;;;;;;;;;2070060;28;20038;-69
2021/10/14 01:46:59;;;;;;;1.00;0.85;;;;;;;;;;2072542;28;20439;-70
2021/10/14 01:48:18;;;;;;;0.80;0.80;;;;;;;;;;2071493;28;20049;-68
2021/10/14 01:49:37;;;;;;;0.68;0.60;;;;;;;;;;2071264;28;20479;-71
2021/10/14 01:50:56;;;;;;;3.15;0.90;;;;;;;;;;2069931;28;20046;-67
2021/10/14 01:52:16;;;;;;;0.80;0.80;;;;;;;;;;2071507;28;20026;-70
2021/10/14 01:53:35;;;;;;;0.63;0.60;;;;;;;;;;2071489;28;20152;-68
2021/10/14 01:54:54;;;;;;;0.70;0.70;;;;;;;;;;2071182;28;20046;-68
2021/10/14 01:56:12;;;;;;;0.98;0.50;;;;;;;;;;2070656;28;20113;-68
2021/10/14 01:57:31;;;;;;;1.13;0.77;;;;;;;;;;2070594;28;20018;-68
2021/10/14 01:58:50;;;;;;;0.80;0.68;;;;;;;;;;2072302;28;20402;-68
2021/10/14 02:00:10;;;;;;;0.77;0.77;;;;;;;;;;2071193;28;20022;-67
2021/10/14 02:01:29;;;;;;;1.63;0.60;;;;;;;;;;2070765;28;20034;-68
2021/10/14 02:02:48;;;;;;;1.42;0.70;;;;;;;;;;2072402;28;20026;-68
2021/10/14 02:04:07;;;;;;;0.68;0.60;;;;;;;;;;2067474;28;20022;-68
2021/10/14 02:05:25;;;;;;;0.82;0.50;;;;;;;;;;2071640;28;20029;-67
2021/10/14 02:06:45;;;;;;;0.82;0.63;;;;;;;;;;2071600;28;20046;-68
2021/10/14 02:08:04;;;;;;;0.50;0.40;;;;;;;;;;2071774;28;20045;-68
2021/10/14 02:09:24;;;;;;;1.67;0.60;;;;;;;;;;2077043;28;20522;-67
2021/10/14 02:10:42;;;;;;;0.65;0.43;;;;;;;;;;2069964;28;20500;-67
2021/10/14 02:12:01;;;;;;;0.70;0.70;;;;;;;;;;2071722;28;20034;-72
2021/10/14 02:13:20;;;;;;;1.15;0.80;;;;;;;;;;2071308;28;20120;-68
2021/10/14 02:14:39;;;;;;;0.50;0.50;;;;;;;;;;2071986;28;20045;-68
2021/10/14 02:15:58;;;;;;;0.90;0.70;;;;;;;;;;2072829;28;20025;-68
2021/10/14 02:17:17;;;;;;;0.55;0.55;;;;;;;;;;2071983;28;20486;-68
2021/10/14 02:18:36;;;;;;;1.80;0.65;;;;;;;;;;2067417;28;20038;-67
2021/10/14 02:19:57;;;;;;;0.73;0.70;;;;;;;;;;2075447;28;20105;-68
2021/10/14 02:21:17;;;;;;;1.08;0.65;;;;;;;;;;2071520;28;20022;-68
2021/10/14 02:22:36;;;;;;;0.60;0.60;;;;;;;;;;2073209;28;20025;-67
2021/10/14 02:23:56;;;;;;;0.82;0.60;;;;;;;;;;2074826;28;20050;-68
2021/10/14 02:25:15;;;;;;;1.15;0.63;;;;;;;;;;2072591;28;20025;-68
2021/10/14 02:26:34;;;;;;;0.75;0.50;;;;;;;;;;2070400;28;20042;-68
2021/10/14 02:27:54;;;;;;;1.30;0.75;;;;;;;;;;2071604;28;20037;-68
2021/10/14 02:29:13;;;;;;;0.60;0.50;;;;;;;;;;2071038;28;20041;-68
2021/10/14 02:30:32;;;;;;;1.33;0.50;;;;;;;;;;2070973;28;20037;-71
2021/10/14 02:31:51;;;;;;;0.70;0.50;;;;;;;;;;2070591;28;20042;-70
2021/10/14 02:33:10;;;;;;;1.75;0.65;;;;;;;;;;2069261;28;20037;-68
2021/10/14 02:34:28;;;;;;;0.70;0.50;;;;;;;;;;2070339;28;20026;-68
2021/10/14 02:35:47;;;;;;;1.33;0.75;;;;;;;;;;2070036;28;20498;-68
2021/10/14 02:37:06;;;;;;;1.00;0.63;;;;;;;;;;2069805;28;20117;-68
2021/10/14 02:38:25;;;;;;;2.47;0.80;;;;;;;;;;2069748;28;20030;-68
2021/10/14 02:39:44;;;;;;;1.35;0.68;;;;;;;;;;2071655;28;20061;-67
2021/10/14 02:41:03;;;;;;;0.77;0.70;;;;;;;;;;2069692;28;20022;-72
2021/10/14 02:42:22;;;;;;;1.73;0.60;;;;;;;;;;2071256;28;20510;-68
2021/10/14 02:43:41;;;;;;;1.17;0.70;;;;;;;;;;2071039;28;20069;-68
2021/10/14 02:45:00;;;;;;;1.30;0.82;;;;;;;;;;2070167;28;20021;-69
2021/10/14 02:46:19;;;;;;;2.08;0.60;;;;;;;;;;2070702;28;20042;-67
2021/10/14 02:47:38;;;;;;;1.17;0.80;;;;;;;;;;2071970;28;20057;-67
2021/10/14 02:48:57;;;;;;;1.83;0.90;;;;;;;;;;2070594;28;20053;-69
2021/10/14 02:50:16;;;;;;;3.63;1.10;;;;;;;;;;2071298;28;20046;-68
2021/10/14 02:51:35;;;;;;;2.20;0.80;;;;;;;;;;2069032;28;20452;-72
2021/10/14 02:52:54;;;;;;;1.77;0.90;;;;;;;;;;2075338;28;20025;-67
2021/10/14 02:54:12;;;;;;;1.10;0.73;;;;;;;;;;2071996;28;20029;-68
2021/10/14 02:55:31;;;;;;;1.77;0.90;;;;;;;;;;2071901;28;20038;-68
2021/10/14 02:56:50;;;;;;;0.70;0.70;;;;;;;;;;2069723;28;20034;-68
2021/10/14 02:58:09;;;;;;;2.60;0.90;;;;;;;;;;2070574;28;20022;-70
2021/10/14 02:59:28;;;;;;;1.25;1.00;;;;;;;;;;2071041;28;20025;-68
2021/10/14 03:00:47;;;;;;;1.83;1.08;;;;;;;;;;2070910;28;20098;-68
2021/10/14 03:02:06;;;;;;;1.13;0.70;;;;;;;;;;2070718;28;20461;-68
2021/10/14 03:03:24;;;;;;;1.33;0.82;;;;;;;;;;2072272;28;20427;-68
2021/10/14 03:04:43;;;;;;;2.05;0.70;;;;;;;;;;2071186;28;20026;-68
2021/10/14 03:06:02;;;;;;;1.83;0.88;;;;;;;;;;2068159;28;20042;-68
2021/10/14 03:07:21;;;;;;;1.40;0.80;;;;;;;;;;2070971;28;20050;-68
2021/10/14 03:08:40;;;;;;;1.17;0.73;;;;;;;;;;2068814;28;20030;-68
2021/10/14 03:09:58;;;;;;;1.13;0.88;;;;;;;;;;2072801;28;20058;-68
2021/10/14 03:11:17;;;;;;;1.90;0.80;;;;;;;;;;2069482;28;20030;-69
2021/10/14 03:12:36;;;;;;;1.40;0.55;;;;;;;;;;2071180;28;20038;-67
2021/10/14 03:13:55;;;;;;;1.08;0.70;;;;;;;;;;2075659;28;20029;-68
2021/10/14 03:15:14;;;;;;;1.15;0.85;;;;;;;;;;2070326;28;20019;-73
2021/10/14 03:16:33;;;;;;;1.35;0.90;;;;;;;;;;2069866;28;20053;-68
2021/10/14 03:17:52;;;;;;;1.58;0.98;;;;;;;;;;2071260;28;20486;-68
2021/10/14 03:19:10;;;;;;;0.90;0.80;;;;;;;;;;2070672;28;20026;-68
2021/10/14 03:20:29;;;;;;;0.70;0.65;;;;;;;;;;2070701;28;20030;-67
2021/10/14 03:21:48;;;;;;;1.67;0.80;;;;;;;;;;2071155;28;20465;-68
2021/10/14 03:23:07;;;;;;;1.48;0.68;;;;;;;;;;2072254;28;20041;-68
2021/10/14 03:24:27;;;;;;;1.27;0.80;;;;;;;;;;2068259;28;20042;-68
2021/10/14 03:25:46;;;;;;;0.85;0.70;;;;;;;;;;2070973;28;20021;-68
2021/10/14 03:27:04;;;;;;;1.58;0.90;;;;;;;;;;2069027;28;20030;-68
2021/10/14 03:28:23;;;;;;;1.80;0.90;;;;;;;;;;2071164;28;20138;-67
2021/10/14 03:29:42;;;;;;;2.15;0.98;;;;;;;;;;2070527;28;20054;-68
2021/10/14 03:31:01;;;;;;;4.35;0.70;;;;;;;;;;2069073;28;20038;-68
2021/10/14 03:32:20;;;;;;;2.90;0.85;;;;;;;;;;2068622;28;20448;-69
2021/10/14 03:33:39;;;;;;;1.23;0.60;;;;;;;;;;2070640;28;20038;-67
2021/10/14 03:34:57;;;;;;;2.40;0.77;;;;;;;;;;2071607;28;20079;-68
2021/10/14 03:36:16;;;;;;;0.60;0.43;;;;;;;;;;2069336;28;20022;-71
2021/10/14 03:37:35;;;;;;;0.90;0.60;;;;;;;;;;2079342;28;20033;-68
2021/10/14 03:38:54;;;;;;;0.75;0.50;;;;;;;;;;2073415;28;20045;-67
2021/10/14 03:40:14;;;;;;;1.27;0.70;;;;;;;;;;2079697;28;20045;-68
2021/10/14 03:41:33;;;;;;;1.05;0.80;;;;;;;;;;2074170;28;20034;-67
2021/10/14 03:42:52;;;;;;;0.70;0.70;;;;;;;;;;2068157;28;20038;-68
2021/10/14 03:44:13;;;;;;;2.03;0.70;;;;;;;;;;2068376;28;20441;-68
2021/10/14 03:45:33;;;;;;;0.43;0.43;;;;;;;;;;2071725;28;20160;-67
2021/10/14 03:46:51;;;;;;;0.95;0.57;;;;;;;;;;2079614;28;20061;-68
2021/10/14 03:48:10;;;;;;;0.68;0.68;;;;;;;;;;2080757;28;20026;-68
2021/10/14 03:49:29;;;;;;;0.52;0.50;;;;;;;;;;2080625;28;20029;-68
2021/10/14 03:50:48;;;;;;;1.10;0.60;;;;;;;;;;2075477;28;20031;-68
2021/10/14 03:52:07;;;;;;;2.15;0.60;;;;;;;;;;2072177;28;20750;-68
2021/10/14 03:53:25;;;;;;;0.52;0.52;;;;;;;;;;2072152;28;20489;-70
2021/10/14 03:54:44;;;;;;;1.05;0.70;;;;;;;;;;2071022;28;20026;-68
2021/10/14 03:56:03;;;;;;;0.80;0.60;;;;;;;;;;2073235;28;20033;-68
2021/10/14 03:57:23;;;;;;;0.80;0.70;;;;;;;;;;2072839;28;20046;-70
2021/10/14 03:58:42;;;;;;;1.65;0.70;;;;;;;;;;2071092;28;20050;-68
2021/10/14 04:00:01;;;;;;;0.75;0.50;;;;;;;;;;2072083;28;20041;-68
2021/10/14 04:01:20;;;;;;;2.05;0.65;;;;;;;;;;2071000;28;20034;-68
2021/10/14 04:02:38;;;;;;;0.73;0.60;;;;;;;;;;2072855;28;20038;-68
2021/10/14 04:03:58;;;;;;;1.30;0.68;;;;;;;;;;2071635;28;20030;-70
2021/10/14 04:05:16;;;;;;;0.98;0.55;;;;;;;;;;2076364;28;20021;-68
2021/10/14 04:06:35;;;;;;;1.58;0.50;;;;;;;;;;2074520;28;20034;-68
2021/10/14 04:07:54;;;;;;;1.23;0.98;;;;;;;;;;2071604;28;20030;-68
2021/10/14 04:09:13;;;;;;;0.93;0.60;;;;;;;;;;2072680;28;20038;-69
2021/10/14 04:10:32;;;;;;;1.20;0.85;;;;;;;;;;2071104;28;20041;-70
2021/10/14 04:11:51;;;;;;;0.90;0.60;;;;;;;;;;2070699;28;20117;-70
2021/10/14 04:13:10;;;;;;;1.95;0.60;;;;;;;;;;2072941;28;20706;-70
2021/10/14 04:14:29;;;;;;;0.85;0.40;;;;;;;;;;2071300;28;20037;-70
2021/10/14 04:15:48;;;;;;;0.90;0.50;;;;;;;;;;2072329;28;20034;-68
2021/10/14 04:17:06;;;;;;;1.00;0.57;;;;;;;;;;2071293;28;20374;-70
2021/10/14 04:18:25;;;;;;;0.98;0.60;;;;;;;;;;2071314;28;20026;-69
2021/10/14 04:19:44;;;;;;;0.43;0.40;;;;;;;;;;2072394;28;20153;-68
2021/10/14 04:21:04;;;;;;;1.10;0.50;;;;;;;;;;2069991;28;20025;-68
2021/10/14 04:22:23;;;;;;;0.65;0.50;;;;;;;;;;2071298;28;20443;-67
2021/10/14 04:23:43;;;;;;;0.50;0.32;;;;;;;;;;2067560;28;20057;-68
2021/10/14 04:25:02;;;;;;;0.50;0.40;;;;;;;;;;2069411;28;20753;-67
2021/10/14 04:26:21;;;;;;;1.27;0.70;;;;;;;;;;2067832;28;20089;-70
2021/10/14 04:27:40;;;;;;;2.70;0.65;;;;;;;;;;2075625;28;20326;-68
2021/10/14 04:28:59;;;;;;;0.55;0.55;;;;;;;;;;2073863;28;20046;-69
2021/10/14 04:30:18;;;;;;;0.60;0.43;;;;;;;;;;2071523;28;20026;-68
2021/10/14 04:31:37;;;;;;;0.90;0.52;;;;;;;;;;2072433;28;20056;-68
2021/10/14 04:32:56;;;;;;;0.63;0.40;;;;;;;;;;2071546;28;20398;-69
2021/10/14 04:34:15;;;;;;;0.45;0.40;;;;;;;;;;2077110;28;20412;-69
2021/10/14 04:35:34;;;;;;;0.63;0.57;;;;;;;;;;2074766;28;20026;-68
2021/10/14 04:36:53;;;;;;;1.30;0.90;;;;;;;;;;2070797;28;20133;-69
2021/10/14 04:38:11;;;;;;;1.70;0.70;;;;;;;;;;2072141;28;20065;-67
2021/10/14 04:39:30;;;;;;;0.70;0.50;;;;;;;;;;2071816;28;20049;-68
2021/10/14 04:40:49;;;;;;;0.73;0.50;;;;;;;;;;2072007;28;20112;-69
2021/10/14 04:42:08;;;;;;;0.98;0.60;;;;;;;;;;2080655;28;20021;-67
2021/10/14 04:43:27;;;;;;;1.45;0.55;;;;;;;;;;2076495;28;20395;-68
2021/10/14 04:44:46;;;;;;;0.75;0.60;;;;;;;;;;2072217;28;20045;-67
2021/10/14 04:46:07;;;;;;;1.02;0.50;;;;;;;;;;2072379;28;20030;-70
2021/10/14 04:47:26;;;;;;;0.45;0.40;;;;;;;;;;2072899;28;20081;-67
2021/10/14 04:48:45;;;;;;;0.77;0.63;;;;;;;;;;2078410;28;20037;-67
2021/10/14 04:50:04;;;;;;;0.90;0.40;;;;;;;;;;2069329;28;20117;-68
2021/10/14 04:51:23;;;;;;;0.85;0.43;;;;;;;;;;2068913;28;20030;-69
2021/10/14 04:52:44;;;;;;;1.42;0.57;;;;;;;;;;2071166;28;20034;-67
2021/10/14 04:54:03;;;;;;;1.60;0.50;;;;;;;;;;2071067;28;20038;-71
2021/10/14 04:55:22;;;;;;;0.50;0.50;;;;;;;;;;2067797;28;20034;-68
2021/10/14 04:56:41;;;;;;;0.57;0.50;;;;;;;;;;2069345;28;20037;-68
2021/10/14 04:58:00;;;;;;;0.60;0.40;;;;;;;;;;2072318;28;20018;-71
2021/10/14 04:59:19;;;;;;;0.57;0.40;;;;;;;;;;2072661;28;20100;-67
2021/10/14 05:00:38;;;;;;;0.60;0.57;;;;;;;;;;2069725;28;20030;-69
2021/10/14 05:01:57;;;;;;;0.60;0.40;;;;;;;;;;2071186;28;20034;-68
2021/10/14 05:03:18;;;;;;;1.08;0.47;;;;;;;;;;2077024;28;20029;-70
2021/10/14 05:04:37;;;;;;;1.75;0.40;;;;;;;;;;2072015;28;20034;-67
2021/10/14 05:05:56;;;;;;;0.70;0.40;;;;;;;;;;2071103;28;20030;-70
2021/10/14 05:07:15;;;;;;;1.35;0.38;;;;;;;;;;2072682;28;20025;-69
2021/10/14 05:08:34;;;;;;;1.27;0.50;;;;;;;;;;2073410;28;20508;-68
2021/10/14 05:09:54;;;;;;;4.22;0.50;;;;;;;;;;2072206;28;20573;-69
2021/10/14 05:11:13;;;;;;;2.15;0.50;;;;;;;;;;2071284;28;20034;-69
2021/10/14 05:12:32;;;;;;;1.98;0.32;;;;;;;;;;2072587;28;20038;-68
2021/10/14 05:13:51;;;;;;;1.02;0.75;;;;;;;;;;2072117;28;20029;-70
2021/10/14 05:15:11;;;;;;;0.40;0.40;;;;;;;;;;2071514;28;20030;-71
2021/10/14 05:16:32;;;;;;;0.90;0.60;;;;;;;;;;2071950;28;20109;-69
2021/10/14 05:17:51;;;;;;;0.40;0.40;;;;;;;;;;2072882;28;20029;-70
2021/10/14 05:19:10;;;;;;;3.30;0.68;;;;;;;;;;2068517;28;20102;-70
2021/10/14 05:20:29;;;;;;;0.85;0.40;;;;;;;;;;2068902;28;20034;-70
2021/10/14 05:21:48;;;;;;;0.80;0.50;;;;;;;;;;2070664;28;20033;-70
2021/10/14 05:23:07;;;;;;;0.90;0.73;;;;;;;;;;2069618;28;20563;-68
2021/10/14 05:24:26;;;;;;;1.52;0.63;;;;;;;;;;2069415;28;20100;-67
2021/10/14 05:25:45;;;;;;;5.60;0.82;;;;;;;;;;2071598;28;20389;-68
2021/10/14 05:27:04;;;;;;;1.23;0.60;;;;;;;;;;2064788;28;20050;-70
2021/10/14 05:28:24;;;;;;;0.50;0.50;;;;;;;;;;2064100;28;20618;-67
2021/10/14 05:29:43;;;;;;;2.50;0.40;;;;;;;;;;2073706;28;20045;-67
2021/10/14 05:31:01;;;;;;;4.32;0.50;;;;;;;;;;2073019;28;20061;-67
2021/10/14 05:32:20;;;;;;;0.55;0.50;;;;;;;;;;2080411;28;20034;-67
2021/10/14 05:33:39;;;;;;;2.50;0.68;;;;;;;;;;2078252;28;20112;-69
2021/10/14 05:34:59;;;;;;;0.73;0.57;;;;;;;;;;2072512;28;20133;-67
2021/10/14 05:36:18;;;;;;;1.25;0.77;;;;;;;;;;2071115;28;20022;-67
2021/10/14 05:37:36;;;;;;;0.57;0.52;;;;;;;;;;2071328;28;20014;-67
2021/10/14 05:38:55;;;;;;;0.55;0.40;;;;;;;;;;2068293;28;20026;-70
2021/10/14 05:40:14;;;;;;;4.28;0.60;;;;;;;;;;2070617;28;20026;-68
2021/10/14 05:41:33;;;;;;;2.03;0.90;;;;;;;;;;2070937;28;20485;-68
2021/10/14 05:42:52;;;;;;;0.65;0.60;;;;;;;;;;2070639;28;20022;-68
2021/10/14 05:44:11;;;;;;;2.42;0.73;;;;;;;;;;2073802;28;20038;-69
2021/10/14 05:45:30;;;;;;;1.00;0.50;;;;;;;;;;2073501;28;20110;-68
2021/10/14 05:46:49;;;;;;;1.15;0.60;;;;;;;;;;2070657;28;20045;-69
2021/10/14 05:48:08;;;;;;;1.58;0.77;;;;;;;;;;2069190;28;20026;-67
2021/10/14 05:49:27;;;;;;;1.55;0.68;;;;;;;;;;2069691;28;20114;-69
2021/10/14 05:50:46;;;;;;;2.15;0.75;;;;;;;;;;2070042;28;20034;-68
2021/10/14 05:52:05;;;;;;;0.98;0.60;;;;;;;;;;2069846;28;20026;-68
2021/10/14 05:53:24;;;;;;;1.80;0.65;;;;;;;;;;2071333;28;20069;-69
2021/10/14 05:54:43;;;;;;;1.42;0.63;;;;;;;;;;2070349;28;20038;-75
2021/10/14 05:56:02;;;;;;;0.80;0.75;;;;;;;;;;2079431;28;20041;-68
2021/10/14 05:57:21;;;;;;;3.70;0.60;;;;;;;;;;2075347;28;20482;-69
2021/10/14 05:58:40;;;;;;;1.55;0.73;;;;;;;;;;2071051;28;20104;-68
2021/10/14 05:59:59;;;;;;;0.82;0.47;;;;;;;;;;2070373;28;20042;-70
2021/10/14 06:01:18;;;;;;;1.77;0.70;;;;;;;;;;2070804;28;20909;-69
2021/10/14 06:02:37;;;;;;;1.05;0.70;;;;;;;;;;2072151;28;20030;-69
2021/10/14 06:03:55;;;;;;;1.25;0.80;;;;;;;;;;2068573;28;20026;-70
2021/10/14 06:05:14;;;;;;;1.17;0.60;;;;;;;;;;2072337;28;20038;-70
2021/10/14 06:06:33;;;;;;;0.70;0.60;;;;;;;;;;2079747;28;20041;-71
2021/10/14 06:07:52;;;;;;;1.65;0.60;;;;;;;;;;2073886;28;20445;-69
2021/10/14 06:09:11;;;;;;;0.80;0.50;;;;;;;;;;2068581;28;20145;-68
2021/10/14 06:10:29;;;;;;;0.90;0.60;;;;;;;;;;2073091;28;20078;-70
2021/10/14 06:11:48;;;;;;;2.35;0.90;;;;;;;;;;2071156;28;20533;-69
2021/10/14 06:13:07;;;;;;;2.30;0.50;;;;;;;;;;2070443;28;20125;-71
2021/10/14 06:14:26;;;;;;;2.38;0.70;;;;;;;;;;2067896;28;20018;-69
2021/10/14 06:15:45;;;;;;;0.45;0.45;;;;;;;;;;2067359;28;20085;-68
2021/10/14 06:17:04;;;;;;;1.13;0.50;;;;;;;;;;2069722;28;20029;-71
2021/10/14 06:18:23;;;;;;;1.95;0.50;;;;;;;;;;2070075;28;20125;-69
2021/10/14 06:19:42;;;;;;;1.42;0.50;;;;;;;;;;2072017;28;20029;-70
2021/10/14 06:21:01;;;;;;;1.02;0.70;;;;;;;;;;2070819;28;20402;-70
2021/10/14 06:22:20;;;;;;;5.32;0.63;;;;;;;;;;2068642;28;20033;-69
2021/10/14 06:23:39;;;;;;;2.53;0.70;;;;;;;;;;2070455;28;20061;-70
2021/10/14 06:24:58;;;;;;;1.08;0.70;;;;;;;;;;2069703;28;20062;-71
2021/10/14 06:26:17;;;;;;;2.03;0.60;;;;;;;;;;2068581;28;20067;-73
2021/10/14 06:27:36;;;;;;;0.98;0.55;;;;;;;;;;2070010;28;20038;-69
2021/10/14 06:28:55;;;;;;;2.00;0.60;;;;;;;;;;2070384;28;20089;-70
2021/10/14 06:30:14;;;;;;;1.83;0.93;;;;;;;;;;2069714;28;20034;-71
2021/10/14 06:31:33;;;;;;;1.63;1.48;;;;;;;;;;2070805;28;20445;-71
2021/10/14 06:32:52;;;;;;;1.17;0.65;;;;;;;;;;2071118;28;20030;-70
2021/10/14 06:34:11;;;;;;;1.95;0.82;;;;;;;;;;2070406;28;20034;-72
2021/10/14 06:35:29;;;;;;;3.00;0.90;;;;;;;;;;2071058;28;20014;-70
2021/10/14 06:36:49;;;;;;;1.33;0.90;;;;;;;;;;2071722;28;20025;-73
2021/10/14 06:38:08;;;;;;;1.75;0.90;;;;;;;;;;2069832;28;20030;-70
2021/10/14 06:39:27;;;;;;;1.08;0.68;;;;;;;;;;2071166;28;20038;-70
2021/10/14 06:40:46;;;;;;;2.03;0.70;;;;;;;;;;2069681;28;20034;-71
2021/10/14 06:42:05;;;;;;;1.77;1.02;;;;;;;;;;2070678;28;20456;-70
2021/10/14 06:43:24;;;;;;;3.85;0.68;;;;;;;;;;2070504;28;20038;-70
2021/10/14 06:44:43;;;;;;;2.40;0.85;;;;;;;;;;2069227;28;20046;-69
2021/10/14 06:46:02;;;;;;;1.60;0.70;;;;;;;;;;2069174;28;20022;-69
2021/10/14 06:47:21;;;;;;;2.83;1.02;;;;;;;;;;2069104;28;20025;-71
2021/10/14 06:48:40;;;;;;;1.55;0.70;;;;;;;;;;2070756;28;20050;-70
2021/10/14 06:49:58;;;;;;;1.10;0.90;;;;;;;;;;2070207;28;20041;-68
2021/10/14 06:51:17;;;;;;;1.05;0.60;;;;;;;;;;2069589;28;20042;-69
2021/10/14 06:52:36;;;;;;;2.90;1.10;;;;;;;;;;2071747;28;20030;-72
2021/10/14 06:53:55;;;;;;;2.22;1.25;;;;;;;;;;2072067;28;20388;-68
2021/10/14 06:55:14;;;;;;;2.80;1.13;;;;;;;;;;2069818;28;20029;-69
2021/10/14 06:56:33;;;;;;;1.67;0.88;;;;;;;;;;2069614;28;20041;-69
2021/10/14 06:57:52;;;;;;;1.85;1.20;;;;;;;;;;2070551;28;20034;-68
2021/10/14 06:59:11;;;;;;;2.60;1.50;;;;;;;;;;2070948;28;20029;-69
2021/10/14 07:00:30;;;;;;;1.83;1.65;;;;;;;;;;2067992;28;20037;-70
2021/10/14 07:01:49;;;;;;;3.88;2.00;;;;;;;;;;2070844;28;20505;-74
2021/10/14 07:03:08;;;;;;;6.40;2.17;;;;;;;;;;2076661;28;20026;-68
2021/10/14 07:04:27;;;;;;;2.50;1.92;;;;;;;;;;2075004;28;20037;-69
2021/10/14 07:05:46;;;;;;;4.18;2.20;;;;;;;;;;2073152;28;20037;-72
2021/10/14 07:07:04;;;;;;;5.25;2.65;;;;;;;;;;2075702;28;20025;-69
2021/10/14 07:08:23;;;;;;;3.90;2.50;;;;;;;;;;2074196;28;20130;-72
2021/10/14 07:09:42;;;;;;;5.18;2.60;;;;;;;;;;2070401;28;20034;-69
2021/10/14 07:11:01;;;;;;;4.03;2.67;;;;;;;;;;2069179;28;20398;-69
2021/10/14 07:12:27;;;;;;;3.35;2.30;;;;;;;;;;2071057;28;20494;-69
2021/10/14 07:13:46;;;;;;;2.30;1.75;;;;;;;;;;2070294;28;20113;-69
2021/10/14 07:15:06;;;;;;;4.43;2.28;;;;;;;;;;2071307;28;20069;-69
2021/10/14 07:16:25;;;;;;;3.13;2.47;;;;;;;;;;2075580;28;20037;-68
2021/10/14 07:17:44;;;;;;;4.90;2.55;;;;;;;;;;2072917;28;20026;-69
2021/10/14 07:19:03;;;;;;;3.75;2.20;;;;;;;;;;2071468;28;20034;-69
2021/10/14 07:20:22;;;;;;;2.50;2.25;;;;;;;;;;2070859;28;20435;-69
2021/10/14 07:21:41;;;;;;;3.97;2.03;;;;;;;;;;2072227;28;20041;-69
2021/10/14 07:23:05;;;;;;;2.70;2.22;;;;;;;;;;2071011;28;20034;-69
2021/10/14 07:24:24;;;;;;;4.72;2.45;;;;;;;;;;2073533;28;20046;-69
2021/10/14 07:25:44;;;;;;;3.60;2.30;;;;;;;;;;2070856;28;20029;-70
2021/10/14 07:27:03;;;;;;;4.75;2.60;;;;;;;;;;2071469;28;20502;-68
2021/10/14 07:28:22;;;;;;;4.22;2.35;;;;;;;;;;2073237;28;20054;-71
2021/10/14 07:29:41;;;;;;;5.00;2.38;;;;;;;;;;2071769;28;20029;-68
2021/10/14 07:31:00;;;;;;;4.88;3.03;;;;;;;;;;2072872;28;20451;-68
2021/10/14 07:32:19;;;;;;;3.40;2.35;;;;;;;;;;2074171;28;20045;-69
2021/10/14 07:33:37;;;;;;;4.43;2.30;;;;;;;;;;2067870;28;20026;-73
2021/10/14 07:34:56;;;;;;;3.53;2.53;;;;;;;;;;2072503;28;20113;-69
2021/10/14 07:36:15;;;;;;;2.97;2.03;;;;;;;;;;2070289;28;20022;-70
2021/10/14 07:37:34;;;;;;;6.40;2.63;;;;;;;;;;2075983;28;20033;-68
2021/10/14 07:38:53;;;;;;;5.13;2.40;;;;;;;;;;2074040;28;20409;-69
2021/10/14 07:40:12;;;;;;;5.50;2.30;;;;;;;;;;2070508;28;20025;-70
2021/10/14 07:41:31;;;;;;;3.58;1.63;;;;;;;;;;2072237;28;20497;-68
2021/10/14 07:42:50;;;;;;;4.28;2.15;;;;;;;;;;2071328;28;20034;-69
2021/10/14 07:44:09;;;;;;;3.80;2.10;;;;;;;;;;2072053;28;20065;-72
2021/10/14 07:45:28;;;;;;;3.45;1.98;;;;;;;;;;2071298;28;20021;-68
2021/10/14 07:46:47;;;;;;;7.22;1.73;;;;;;;;;;2066943;28;20034;-69
2021/10/14 07:48:07;;;;;;;5.85;2.53;;;;;;;;;;2073137;28;20018;-72
2021/10/14 07:49:26;;;;;;;2.20;1.27;;;;;;;;;;2072098;28;20018;-68
2021/10/14 07:50:45;;;;;;;2.47;1.27;;;;;;;;;;2072657;28;20108;-68
2021/10/14 07:52:04;;;;;;;2.13;1.30;;;;;;;;;;2071787;28;20026;-69
2021/10/14 07:53:24;;;;;;;4.43;1.65;;;;;;;;;;2072757;28;20030;-69
2021/10/14 07:54:43;;;;;;;4.85;1.33;;;;;;;;;;2070067;28;20038;-70